sensor_id;sensor_type;location;lat;lon;timestamp;pressure;altitude;pressure_sealevel;temperature;humidity
8894;BME280;4483;48.622;9.230;2023-04-21T00:00:48;97539.00;;;5.84;100.00
8894;BME280;4483;48.622;9.230;2023-04-21T00:03:16;97533.91;;;5.81;100.00
8894;BME280;4483;48.622;9.230;2023-04-21T00:05:45;97538.22;;;5.80;100.00
8894;BME280;4483;48.622;9.230;2023-04-21T00:08:12;97543.31;;;5.80;100.00
8894;BME280;4483;48.622;9.230;2023-04-21T00:10:41;97538.22;;;5.79;100.00
8894;BME280;4483;48.622;9.230;2023-04-21T00:13:08;97532.31;;;5.77;100.00
8894;BME280;4483;48.622;9.230;2023-04-21T00:15:35;97528.09;;;5.76;100.00
8894;BME280;4483;48.622;9.230;2023-04-21T00:18:02;97530.66;;;5.76;100.00
8894;BME280;4483;48.622;9.230;2023-04-21T00:20:29;97527.25;;;5.75;100.00
8894;BME280;4483;48.622;9.230;2023-04-21T00:22:56;97522.19;;;5.74;100.00
8894;BME280;4483;48.622;9.230;2023-04-21T00:25:24;97529.03;;;5.72;100.00
8894;BME280;4483;48.622;9.230;2023-04-21T00:27:52;97524.88;;;5.69;100.00
8894;BME280;4483;48.622;9.230;2023-04-21T00:30:18;97526.63;;;5.67;100.00
8894;BME280;4483;48.622;9.230;2023-04-21T00:32:45;97520.69;;;5.67;100.00
8894;BME280;4483;48.622;9.230;2023-04-21T00:35:12;97519.06;;;5.63;100.00
8894;BME280;4483;48.622;9.230;2023-04-21T00:37:39;97520.75;;;5.64;100.00
8894;BME280;4483;48.622;9.230;2023-04-21T00:40:07;97512.28;;;5.62;100.00
8894;BME280;4483;48.622;9.230;2023-04-21T00:42:34;97513.19;;;5.59;100.00
8894;BME280;4483;48.622;9.230;2023-04-21T00:45:02;97506.44;;;5.57;100.00
8894;BME280;4483;48.622;9.230;2023-04-21T00:47:29;97511.59;;;5.55;100.00
8894;BME280;4483;48.622;9.230;2023-04-21T00:49:56;97513.41;;;5.52;100.00
8894;BME280;4483;48.622;9.230;2023-04-21T00:52:23;97507.53;;;5.48;100.00
8894;BME280;4483;48.622;9.230;2023-04-21T00:54:50;97511.78;;;5.48;100.00
8894;BME280;4483;48.622;9.230;2023-04-21T00:57:17;97508.41;;;5.47;100.00
8894;BME280;4483;48.622;9.230;2023-04-21T00:59:44;97502.47;;;5.47;100.00
8894;BME280;4483;48.622;9.230;2023-04-21T01:02:13;97507.63;;;5.45;100.00
8894;BME280;4483;48.622;9.230;2023-04-21T01:04:40;97499.16;;;5.43;100.00
8894;BME280;4483;48.622;9.230;2023-04-21T01:07:06;97492.41;;;5.41;100.00
8894;BME280;4483;48.622;9.230;2023-04-21T01:09:34;97490.78;;;5.37;100.00
8894;BME280;4483;48.622;9.230;2023-04-21T01:12:02;97484.16;;;5.30;100.00
8894;BME280;4483;48.622;9.230;2023-04-21T01:14:29;97486.75;;;5.28;100.00
8894;BME280;4483;48.622;9.230;2023-04-21T01:16:56;97485.09;;;5.27;100.00
8894;BME280;4483;48.622;9.230;2023-04-21T01:19:27;97480.94;;;5.23;100.00
8894;BME280;4483;48.622;9.230;2023-04-21T01:21:56;97480.00;;;5.26;100.00
8894;BME280;4483;48.622;9.230;2023-04-21T01:24:34;97483.47;;;5.25;100.00
8894;BME280;4483;48.622;9.230;2023-04-21T01:27:01;97483.47;;;5.25;100.00
8894;BME280;4483;48.622;9.230;2023-04-21T01:29:31;97486.06;;;5.23;100.00
8894;BME280;4483;48.622;9.230;2023-04-21T01:31:58;97488.66;;;5.20;100.00
8894;BME280;4483;48.622;9.230;2023-04-21T01:34:29;97493.84;;;5.17;100.00
8894;BME280;4483;48.622;9.230;2023-04-21T01:36:57;97484.72;;;5.08;100.00
8894;BME280;4483;48.622;9.230;2023-04-21T01:39:23;97495.69;;;5.12;100.00
8894;BME280;4483;48.622;9.230;2023-04-21T01:41:50;97499.16;;;5.09;100.00
8894;BME280;4483;48.622;9.230;2023-04-21T01:44:17;97502.59;;;5.08;100.00
8894;BME280;4483;48.622;9.230;2023-04-21T01:46:43;97502.63;;;5.07;100.00
8894;BME280;4483;48.622;9.230;2023-04-21T01:49:10;97495.03;;;5.04;100.00
8894;BME280;4483;48.622;9.230;2023-04-21T01:51:37;97492.47;;;5.04;100.00
8894;BME280;4483;48.622;9.230;2023-04-21T01:54:05;97482.53;;;4.93;100.00
8894;BME280;4483;48.622;9.230;2023-04-21T01:56:31;97488.41;;;4.97;100.00
8894;BME280;4483;48.622;9.230;2023-04-21T01:58:58;97490.94;;;4.97;100.00
8894;BME280;4483;48.622;9.230;2023-04-21T02:01:25;97492.75;;;4.93;100.00
8894;BME280;4483;48.622;9.230;2023-04-21T02:03:52;97498.88;;;4.86;100.00
8894;BME280;4483;48.622;9.230;2023-04-21T02:06:18;97499.91;;;4.79;100.00
8894;BME280;4483;48.622;9.230;2023-04-21T02:08:45;97497.44;;;4.75;100.00
8894;BME280;4483;48.622;9.230;2023-04-21T02:11:13;97501.69;;;4.74;100.00
8894;BME280;4483;48.622;9.230;2023-04-21T02:13:40;97499.22;;;4.71;100.00
8894;BME280;4483;48.622;9.230;2023-04-21T02:16:07;97499.34;;;4.65;100.00
8894;BME280;4483;48.622;9.230;2023-04-21T02:18:34;97506.28;;;4.60;100.00
8894;BME280;4483;48.622;9.230;2023-04-21T02:21:04;97508.94;;;4.54;100.00
8894;BME280;4483;48.622;9.230;2023-04-21T02:23:31;97503.06;;;4.52;100.00
8894;BME280;4483;48.622;9.230;2023-04-21T02:25:58;97510.75;;;4.51;100.00
8894;BME280;4483;48.622;9.230;2023-04-21T02:28:26;97506.47;;;4.51;100.00
8894;BME280;4483;48.622;9.230;2023-04-21T02:30:52;97509.03;;;4.51;100.00
8894;BME280;4483;48.622;9.230;2023-04-21T02:33:19;97506.53;;;4.50;100.00
8894;BME280;4483;48.622;9.230;2023-04-21T02:35:46;97509.03;;;4.51;100.00
8894;BME280;4483;48.622;9.230;2023-04-21T02:38:12;97516.69;;;4.51;100.00
8894;BME280;4483;48.622;9.230;2023-04-21T02:40:39;97520.97;;;4.49;100.00
8894;BME280;4483;48.622;9.230;2023-04-21T02:43:07;97517.56;;;4.50;100.00
8894;BME280;4483;48.622;9.230;2023-04-21T02:45:35;97521.88;;;4.48;100.00
8894;BME280;4483;48.622;9.230;2023-04-21T02:48:02;97512.56;;;4.46;100.00
8894;BME280;4483;48.622;9.230;2023-04-21T02:50:29;97499.03;;;4.42;100.00
8894;BME280;4483;48.622;9.230;2023-04-21T02:52:55;97494.81;;;4.41;100.00
8894;BME280;4483;48.622;9.230;2023-04-21T02:55:23;97491.47;;;4.39;100.00
8894;BME280;4483;48.622;9.230;2023-04-21T02:57:50;97496.59;;;4.36;100.00
8894;BME280;4483;48.622;9.230;2023-04-21T03:00:17;97499.22;;;4.33;100.00
8894;BME280;4483;48.622;9.230;2023-04-21T03:02:46;97496.75;;;4.29;100.00
8894;BME280;4483;48.622;9.230;2023-04-21T03:05:12;97495.16;;;4.26;100.00
8894;BME280;4483;48.622;9.230;2023-04-21T03:07:39;97490.16;;;4.20;100.00
8894;BME280;4483;48.622;9.230;2023-04-21T03:10:06;97486.00;;;4.16;100.00
8894;BME280;4483;48.622;9.230;2023-04-21T03:12:33;97488.63;;;4.13;100.00
8894;BME280;4483;48.622;9.230;2023-04-21T03:14:59;97490.34;;;4.11;100.00
8894;BME280;4483;48.622;9.230;2023-04-21T03:17:26;97496.34;;;4.10;100.00
8894;BME280;4483;48.622;9.230;2023-04-21T03:19:54;97485.34;;;4.06;100.00
8894;BME280;4483;48.622;9.230;2023-04-21T03:22:20;97495.53;;;4.06;100.00
8894;BME280;4483;48.622;9.230;2023-04-21T03:24:47;97495.56;;;4.05;100.00
8894;BME280;4483;48.622;9.230;2023-04-21T03:27:14;97499.00;;;4.04;100.00
8894;BME280;4483;48.622;9.230;2023-04-21T03:29:40;97503.22;;;4.05;100.00
8894;BME280;4483;48.622;9.230;2023-04-21T03:32:07;97495.66;;;4.02;100.00
8894;BME280;4483;48.622;9.230;2023-04-21T03:34:33;97487.19;;;4.00;100.00
8894;BME280;4483;48.622;9.230;2023-04-21T03:37:01;97486.34;;;3.99;100.00
8894;BME280;4483;48.622;9.230;2023-04-21T03:39:28;97493.16;;;3.99;100.00
8894;BME280;4483;48.622;9.230;2023-04-21T03:41:55;97494.03;;;3.98;100.00
8894;BME280;4483;48.622;9.230;2023-04-21T03:44:24;97498.28;;;3.97;100.00
8894;BME280;4483;48.622;9.230;2023-04-21T03:46:51;97505.97;;;3.96;100.00
8894;BME280;4483;48.622;9.230;2023-04-21T03:49:18;97508.47;;;3.97;100.00
8894;BME280;4483;48.622;9.230;2023-04-21T03:51:44;97505.97;;;3.96;100.00
8894;BME280;4483;48.622;9.230;2023-04-21T03:54:12;97510.16;;;3.98;100.00
8894;BME280;4483;48.622;9.230;2023-04-21T03:56:39;97507.66;;;3.97;100.00
8894;BME280;4483;48.622;9.230;2023-04-21T03:59:06;97500.84;;;3.96;100.00
8894;BME280;4483;48.622;9.230;2023-04-21T04:01:33;97500.94;;;3.93;100.00
8894;BME280;4483;48.622;9.230;2023-04-21T04:04:00;97503.53;;;3.90;100.00
8894;BME280;4483;48.622;9.230;2023-04-21T04:06:26;97500.16;;;3.89;100.00
8894;BME280;4483;48.622;9.230;2023-04-21T04:08:53;97507.84;;;3.88;100.00
8894;BME280;4483;48.622;9.230;2023-04-21T04:11:21;97511.19;;;3.88;100.00
8894;BME280;4483;48.622;9.230;2023-04-21T04:13:48;97507.84;;;3.88;100.00
8894;BME280;4483;48.622;9.230;2023-04-21T04:16:15;97512.94;;;3.88;100.00
8894;BME280;4483;48.622;9.230;2023-04-21T04:18:42;97508.72;;;3.85;100.00
8894;BME280;4483;48.622;9.230;2023-04-21T04:21:10;97506.16;;;3.85;100.00
8894;BME280;4483;48.622;9.230;2023-04-21T04:23:36;97503.63;;;3.85;100.00
8894;BME280;4483;48.622;9.230;2023-04-21T04:26:03;97506.22;;;3.84;100.00
8894;BME280;4483;48.622;9.230;2023-04-21T04:28:31;97505.31;;;3.85;100.00
8894;BME280;4483;48.622;9.230;2023-04-21T04:30:59;97505.34;;;3.83;100.00
8894;BME280;4483;48.622;9.230;2023-04-21T04:33:27;97510.50;;;3.82;100.00
8894;BME280;4483;48.622;9.230;2023-04-21T04:35:53;97505.44;;;3.80;100.00
8894;BME280;4483;48.622;9.230;2023-04-21T04:38:20;97503.72;;;3.79;100.00
8894;BME280;4483;48.622;9.230;2023-04-21T04:40:52;97504.59;;;3.80;100.00
8894;BME280;4483;48.622;9.230;2023-04-21T04:43:19;97504.53;;;3.81;100.00
8894;BME280;4483;48.622;9.230;2023-04-21T04:45:47;97507.94;;;3.82;100.00
8894;BME280;4483;48.622;9.230;2023-04-21T04:48:14;97495.09;;;3.86;100.00
8894;BME280;4483;48.622;9.230;2023-04-21T04:50:40;97495.09;;;3.88;100.00
8894;BME280;4483;48.622;9.230;2023-04-21T04:53:07;97498.41;;;3.91;100.00
8894;BME280;4483;48.622;9.230;2023-04-21T04:55:33;97510.31;;;3.91;100.00
8894;BME280;4483;48.622;9.230;2023-04-21T04:58:01;97511.19;;;3.88;100.00
8894;BME280;4483;48.622;9.230;2023-04-21T05:00:27;97517.16;;;3.89;100.00
8894;BME280;4483;48.622;9.230;2023-04-21T05:02:55;97527.41;;;3.86;100.00
8894;BME280;4483;48.622;9.230;2023-04-21T05:05:22;97536.72;;;3.87;100.00
8894;BME280;4483;48.622;9.230;2023-04-21T05:07:50;97537.50;;;3.90;100.00
8894;BME280;4483;48.622;9.230;2023-04-21T05:10:16;97519.69;;;3.89;100.00
8894;BME280;4483;48.622;9.230;2023-04-21T05:12:43;97528.94;;;3.94;100.00
8894;BME280;4483;48.622;9.230;2023-04-21T05:15:10;97534.88;;;3.95;100.00
8894;BME280;4483;48.622;9.230;2023-04-21T05:17:36;97540.81;;;3.94;100.00
8894;BME280;4483;48.622;9.230;2023-04-21T05:20:05;97545.09;;;3.92;100.00
8894;BME280;4483;48.622;9.230;2023-04-21T05:22:35;97539.16;;;3.93;100.00
8894;BME280;4483;48.622;9.230;2023-04-21T05:25:02;97556.13;;;3.94;100.00
8894;BME280;4483;48.622;9.230;2023-04-21T05:27:29;97549.41;;;3.90;100.00
8894;BME280;4483;48.622;9.230;2023-04-21T05:29:56;97560.28;;;3.98;100.00
8894;BME280;4483;48.622;9.230;2023-04-21T05:32:23;97555.94;;;4.03;100.00
8894;BME280;4483;48.622;9.230;2023-04-21T05:34:50;97544.81;;;4.07;100.00
8894;BME280;4483;48.622;9.230;2023-04-21T05:37:17;97540.47;;;4.12;100.00
8894;BME280;4483;48.622;9.230;2023-04-21T05:39:44;97539.50;;;4.18;100.00
8894;BME280;4483;48.622;9.230;2023-04-21T05:42:11;97543.63;;;4.23;100.00
8894;BME280;4483;48.622;9.230;2023-04-21T05:44:38;97540.97;;;4.29;100.00
8894;BME280;4483;48.622;9.230;2023-04-21T05:47:05;97539.09;;;4.37;100.00
8894;BME280;4483;48.622;9.230;2023-04-21T05:49:32;97528.72;;;4.46;100.00
8894;BME280;4483;48.622;9.230;2023-04-21T05:51:58;97531.06;;;4.55;100.00
8894;BME280;4483;48.622;9.230;2023-04-21T05:54:26;97525.03;;;4.59;100.00
8894;BME280;4483;48.622;9.230;2023-04-21T05:56:53;97510.41;;;4.66;100.00
8894;BME280;4483;48.622;9.230;2023-04-21T05:59:20;97495.72;;;4.75;100.00
8894;BME280;4483;48.622;9.230;2023-04-21T06:01:46;97492.06;;;4.85;100.00
8894;BME280;4483;48.622;9.230;2023-04-21T06:04:13;97500.41;;;4.93;100.00
8894;BME280;4483;48.622;9.230;2023-04-21T06:06:39;97490.94;;;4.97;100.00
8894;BME280;4483;48.622;9.230;2023-04-21T06:09:06;97491.66;;;5.03;100.00
8894;BME280;4483;48.622;9.230;2023-04-21T06:11:34;97521.44;;;5.03;100.00
8894;BME280;4483;48.622;9.230;2023-04-21T06:14:01;97533.38;;;5.02;100.00
8894;BME280;4483;48.622;9.230;2023-04-21T06:16:28;97514.47;;;5.09;100.00
8894;BME280;4483;48.622;9.230;2023-04-21T06:18:58;97510.75;;;5.23;100.00
8894;BME280;4483;48.622;9.230;2023-04-21T06:21:25;97513.59;;;5.44;100.00
8894;BME280;4483;48.622;9.230;2023-04-21T06:23:51;97518.13;;;5.67;100.00
8894;BME280;4483;48.622;9.230;2023-04-21T06:26:18;97516.84;;;5.83;100.00
8894;BME280;4483;48.622;9.230;2023-04-21T06:28:46;97514.69;;;6.00;100.00
8894;BME280;4483;48.622;9.230;2023-04-21T06:31:13;97512.75;;;6.08;100.00
8894;BME280;4483;48.622;9.230;2023-04-21T06:33:40;97504.03;;;6.15;100.00
8894;BME280;4483;48.622;9.230;2023-04-21T06:36:07;97503.09;;;6.18;100.00
8894;BME280;4483;48.622;9.230;2023-04-21T06:38:33;97502.28;;;6.17;100.00
8894;BME280;4483;48.622;9.230;2023-04-21T06:41:00;97498.16;;;6.12;100.00
8894;BME280;4483;48.622;9.230;2023-04-21T06:43:28;97503.50;;;6.02;100.00
8894;BME280;4483;48.622;9.230;2023-04-21T06:45:56;97513.03;;;5.97;100.00
8894;BME280;4483;48.622;9.230;2023-04-21T06:48:23;97513.09;;;5.96;100.00
8894;BME280;4483;48.622;9.230;2023-04-21T06:50:50;97510.69;;;5.91;100.00
8894;BME280;4483;48.622;9.230;2023-04-21T06:53:17;97520.81;;;5.94;100.00
8894;BME280;4483;48.622;9.230;2023-04-21T06:55:46;97513.94;;;5.96;100.00
8894;BME280;4483;48.622;9.230;2023-04-21T06:58:12;97522.09;;;6.09;100.00
8894;BME280;4483;48.622;9.230;2023-04-21T07:00:40;97515.56;;;6.28;100.00
8894;BME280;4483;48.622;9.230;2023-04-21T07:03:08;97513.31;;;6.47;100.00
8894;BME280;4483;48.622;9.230;2023-04-21T07:05:34;97510.97;;;6.68;100.00
8894;BME280;4483;48.622;9.230;2023-04-21T07:08:01;97508.91;;;6.79;100.00
8894;BME280;4483;48.622;9.230;2023-04-21T07:10:28;97505.91;;;6.93;100.00
8894;BME280;4483;48.622;9.230;2023-04-21T07:12:55;97499.09;;;7.20;100.00
8894;BME280;4483;48.622;9.230;2023-04-21T07:15:22;97484.94;;;7.34;100.00
8894;BME280;4483;48.622;9.230;2023-04-21T07:17:48;97492.78;;;7.54;100.00
8894;BME280;4483;48.622;9.230;2023-04-21T07:20:17;97489.53;;;7.74;100.00
8894;BME280;4483;48.622;9.230;2023-04-21T07:22:43;97498.34;;;7.90;100.00
8894;BME280;4483;48.622;9.230;2023-04-21T07:25:10;97505.00;;;8.18;100.00
8894;BME280;4483;48.622;9.230;2023-04-21T07:27:37;97509.16;;;8.46;100.00
8894;BME280;4483;48.622;9.230;2023-04-21T07:30:05;97498.44;;;8.58;100.00
8894;BME280;4483;48.622;9.230;2023-04-21T07:32:32;97498.28;;;8.61;100.00
8894;BME280;4483;48.622;9.230;2023-04-21T07:34:59;97503.69;;;8.55;100.00
8894;BME280;4483;48.622;9.230;2023-04-21T07:37:28;97508.19;;;8.48;100.00
8894;BME280;4483;48.622;9.230;2023-04-21T07:39:55;97499.94;;;8.63;100.00
8894;BME280;4483;48.622;9.230;2023-04-21T07:42:21;97497.19;;;8.89;100.00
8894;BME280;4483;48.622;9.230;2023-04-21T07:44:48;97485.41;;;9.05;100.00
8894;BME280;4483;48.622;9.230;2023-04-21T07:47:15;97489.94;;;9.21;100.00
8894;BME280;4483;48.622;9.230;2023-04-21T07:49:42;97486.75;;;9.76;100.00
8894;BME280;4483;48.622;9.230;2023-04-21T07:52:08;97485.50;;;10.60;100.00
8894;BME280;4483;48.622;9.230;2023-04-21T07:54:36;97476.47;;;11.57;99.03
8894;BME280;4483;48.622;9.230;2023-04-21T07:57:03;97474.47;;;12.45;95.95
8894;BME280;4483;48.622;9.230;2023-04-21T07:59:31;97460.00;;;13.19;93.09
8894;BME280;4483;48.622;9.230;2023-04-21T08:01:58;97462.13;;;13.56;90.06
8894;BME280;4483;48.622;9.230;2023-04-21T08:04:24;97467.00;;;14.18;87.63
8894;BME280;4483;48.622;9.230;2023-04-21T08:06:51;97461.91;;;14.59;81.87
8894;BME280;4483;48.622;9.230;2023-04-21T08:09:18;97454.22;;;14.84;81.10
8894;BME280;4483;48.622;9.230;2023-04-21T08:11:46;97459.00;;;14.77;75.01
8894;BME280;4483;48.622;9.230;2023-04-21T08:14:12;97451.94;;;14.79;78.24
8894;BME280;4483;48.622;9.230;2023-04-21T08:16:39;97454.13;;;14.85;76.47
8894;BME280;4483;48.622;9.230;2023-04-21T08:19:06;97449.44;;;15.04;72.87
8894;BME280;4483;48.622;9.230;2023-04-21T08:21:33;97450.84;;;15.23;74.35
8894;BME280;4483;48.622;9.230;2023-04-21T08:24:00;97453.94;;;15.42;71.43
8894;BME280;4483;48.622;9.230;2023-04-21T08:26:26;97450.13;;;15.72;74.23
8894;BME280;4483;48.622;9.230;2023-04-21T08:28:56;97453.56;;;16.10;68.67
8894;BME280;4483;48.622;9.230;2023-04-21T08:31:24;97459.16;;;16.30;69.25
8894;BME280;4483;48.622;9.230;2023-04-21T08:33:52;97458.50;;;16.26;65.05
8894;BME280;4483;48.622;9.230;2023-04-21T08:36:19;97457.00;;;16.11;65.99
8894;BME280;4483;48.622;9.230;2023-04-21T08:38:46;97460.28;;;16.38;67.81
8894;BME280;4483;48.622;9.230;2023-04-21T08:41:12;97445.84;;;16.70;66.84
8894;BME280;4483;48.622;9.230;2023-04-21T08:43:39;97439.13;;;16.91;66.61
8894;BME280;4483;48.622;9.230;2023-04-21T08:46:08;97431.59;;;16.99;64.44
8894;BME280;4483;48.622;9.230;2023-04-21T08:48:36;97438.41;;;17.13;63.30
8894;BME280;4483;48.622;9.230;2023-04-21T08:51:04;97433.28;;;17.35;63.79
8894;BME280;4483;48.622;9.230;2023-04-21T08:53:34;97429.38;;;17.64;63.84
8894;BME280;4483;48.622;9.230;2023-04-21T08:56:00;97419.81;;;17.98;63.53
8894;BME280;4483;48.622;9.230;2023-04-21T08:58:27;97415.66;;;18.29;62.49
8894;BME280;4483;48.622;9.230;2023-04-21T09:00:54;97410.91;;;18.56;61.35
8894;BME280;4483;48.622;9.230;2023-04-21T09:03:25;97408.13;;;18.79;59.33
8894;BME280;4483;48.622;9.230;2023-04-21T09:06:03;97415.59;;;18.95;56.60
8894;BME280;4483;48.622;9.230;2023-04-21T09:08:31;97409.69;;;19.14;58.37
8894;BME280;4483;48.622;9.230;2023-04-21T09:10:59;97401.28;;;19.31;56.17
8894;BME280;4483;48.622;9.230;2023-04-21T09:13:31;97404.41;;;19.25;53.12
8894;BME280;4483;48.622;9.230;2023-04-21T09:15:59;97407.84;;;19.25;53.15
8894;BME280;4483;48.622;9.230;2023-04-21T09:18:29;97411.84;;;19.40;54.13
8894;BME280;4483;48.622;9.230;2023-04-21T09:21:06;97407.53;;;19.19;54.05
8894;BME280;4483;48.622;9.230;2023-04-21T09:23:43;97407.28;;;19.22;54.17
8894;BME280;4483;48.622;9.230;2023-04-21T09:26:11;97407.34;;;19.63;53.24
8894;BME280;4483;48.622;9.230;2023-04-21T09:28:40;97404.03;;;19.91;53.39
8894;BME280;4483;48.622;9.230;2023-04-21T09:31:12;97386.72;;;20.20;53.00
8894;BME280;4483;48.622;9.230;2023-04-21T09:33:44;97392.28;;;20.36;52.51
8894;BME280;4483;48.622;9.230;2023-04-21T09:36:17;97389.41;;;20.39;50.20
8894;BME280;4483;48.622;9.230;2023-04-21T09:41:31;97393.00;;;20.48;50.40
8894;BME280;4483;48.622;9.230;2023-04-21T09:43:58;97383.56;;;20.85;50.21
8894;BME280;4483;48.622;9.230;2023-04-21T09:46:27;97380.97;;;21.23;49.79
8894;BME280;4483;48.622;9.230;2023-04-21T09:48:56;97387.47;;;21.38;48.70
8894;BME280;4483;48.622;9.230;2023-04-21T09:51:25;97377.66;;;21.40;48.06
8894;BME280;4483;48.622;9.230;2023-04-21T09:53:57;97381.41;;;21.09;47.76
8894;BME280;4483;48.622;9.230;2023-04-21T09:56:24;97367.59;;;20.97;47.56
8894;BME280;4483;48.622;9.230;2023-04-21T09:58:57;97365.16;;;21.06;48.23
8894;BME280;4483;48.622;9.230;2023-04-21T10:01:28;97363.63;;;21.13;48.02
8894;BME280;4483;48.622;9.230;2023-04-21T10:03:57;97361.94;;;21.31;48.74
8894;BME280;4483;48.622;9.230;2023-04-21T10:06:24;97357.50;;;21.50;47.41
8894;BME280;4483;48.622;9.230;2023-04-21T10:08:53;97361.88;;;21.69;47.79
8894;BME280;4483;48.622;9.230;2023-04-21T10:11:22;97353.81;;;21.99;48.42
8894;BME280;4483;48.622;9.230;2023-04-21T10:13:50;97357.81;;;22.30;47.79
8894;BME280;4483;48.622;9.230;2023-04-21T10:16:17;97353.78;;;22.36;46.36
8894;BME280;4483;48.622;9.230;2023-04-21T10:18:45;97350.94;;;22.20;45.68
8894;BME280;4483;48.622;9.230;2023-04-21T10:21:17;97350.31;;;22.08;46.35
8894;BME280;4483;48.622;9.230;2023-04-21T10:23:47;97343.22;;;22.18;47.01
8894;BME280;4483;48.622;9.230;2023-04-21T10:26:16;97346.91;;;22.52;46.78
8894;BME280;4483;48.622;9.230;2023-04-21T10:28:52;97349.06;;;22.84;46.14
8894;BME280;4483;48.622;9.230;2023-04-21T10:31:25;97342.44;;;23.15;46.08
8894;BME280;4483;48.622;9.230;2023-04-21T10:34:16;97348.34;;;23.52;46.15
8894;BME280;4483;48.622;9.230;2023-04-21T10:37:10;97348.66;;;23.75;45.98
8894;BME280;4483;48.622;9.230;2023-04-21T10:39:44;97349.22;;;23.61;45.88
8894;BME280;4483;48.622;9.230;2023-04-21T10:42:23;97340.13;;;23.55;46.29
8894;BME280;4483;48.622;9.230;2023-04-21T10:44:52;97341.16;;;23.62;46.13
8894;BME280;4483;48.622;9.230;2023-04-21T10:47:25;97342.66;;;23.39;45.71
8894;BME280;4483;48.622;9.230;2023-04-21T10:49:55;97334.25;;;23.36;46.48
8894;BME280;4483;48.622;9.230;2023-04-21T10:52:32;97330.81;;;23.61;46.94
8894;BME280;4483;48.622;9.230;2023-04-21T10:55:06;97326.97;;;23.81;45.87
8894;BME280;4483;48.622;9.230;2023-04-21T10:57:37;97321.41;;;23.84;46.22
8894;BME280;4483;48.622;9.230;2023-04-21T11:00:07;97319.47;;;23.86;45.52
8894;BME280;4483;48.622;9.230;2023-04-21T11:02:34;97313.31;;;23.77;46.26
8894;BME280;4483;48.622;9.230;2023-04-21T11:05:01;97312.53;;;23.85;45.90
8894;BME280;4483;48.622;9.230;2023-04-21T11:07:29;97307.63;;;23.90;45.38
8894;BME280;4483;48.622;9.230;2023-04-21T11:09:58;97306.09;;;23.79;45.52
8894;BME280;4483;48.622;9.230;2023-04-21T11:12:26;97298.03;;;23.81;44.83
8894;BME280;4483;48.622;9.230;2023-04-21T11:14:54;97306.88;;;23.72;44.64
8894;BME280;4483;48.622;9.230;2023-04-21T11:17:21;97299.81;;;23.72;45.27
8894;BME280;4483;48.622;9.230;2023-04-21T11:19:49;97297.75;;;23.84;45.14
8894;BME280;4483;48.622;9.230;2023-04-21T11:22:16;97294.88;;;24.03;45.28
8894;BME280;4483;48.622;9.230;2023-04-21T11:24:46;97295.94;;;24.18;44.80
8894;BME280;4483;48.622;9.230;2023-04-21T11:27:13;97296.31;;;24.31;44.15
8894;BME280;4483;48.622;9.230;2023-04-21T11:29:40;97292.69;;;24.32;44.34
8894;BME280;4483;48.622;9.230;2023-04-21T11:32:08;97285.28;;;24.28;44.13
8894;BME280;4483;48.622;9.230;2023-04-21T11:34:35;97283.47;;;24.28;44.88
8894;BME280;4483;48.622;9.230;2023-04-21T11:37:03;97283.16;;;24.31;45.47
8894;BME280;4483;48.622;9.230;2023-04-21T11:39:31;97284.94;;;24.31;44.56
8894;BME280;4483;48.622;9.230;2023-04-21T11:41:59;97275.78;;;24.51;45.30
8894;BME280;4483;48.622;9.230;2023-04-21T11:44:31;97280.09;;;24.68;45.05
8894;BME280;4483;48.622;9.230;2023-04-21T11:46:58;97282.28;;;24.80;44.14
8894;BME280;4483;48.622;9.230;2023-04-21T11:49:25;97276.94;;;24.56;42.95
8894;BME280;4483;48.622;9.230;2023-04-21T11:51:54;97271.50;;;24.58;44.13
8894;BME280;4483;48.622;9.230;2023-04-21T11:54:20;97259.56;;;24.79;44.60
8894;BME280;4483;48.622;9.230;2023-04-21T11:56:49;97274.84;;;25.00;43.97
8894;BME280;4483;48.622;9.230;2023-04-21T11:59:21;97264.81;;;25.04;42.82
8894;BME280;4483;48.622;9.230;2023-04-21T12:01:50;97269.25;;;24.95;42.76
8894;BME280;4483;48.622;9.230;2023-04-21T12:04:18;97262.50;;;25.01;43.31
8894;BME280;4483;48.622;9.230;2023-04-21T12:06:45;97244.56;;;25.12;43.42
8894;BME280;4483;48.622;9.230;2023-04-21T12:09:17;97257.88;;;25.27;43.56
8894;BME280;4483;48.622;9.230;2023-04-21T12:11:46;97252.59;;;25.19;43.65
8894;BME280;4483;48.622;9.230;2023-04-21T12:14:14;97256.41;;;24.84;42.70
8894;BME280;4483;48.622;9.230;2023-04-21T12:16:42;97253.47;;;24.79;42.94
8894;BME280;4483;48.622;9.230;2023-04-21T12:19:09;97243.25;;;24.84;43.58
8894;BME280;4483;48.622;9.230;2023-04-21T12:21:36;97252.97;;;24.92;43.04
8894;BME280;4483;48.622;9.230;2023-04-21T12:24:04;97238.13;;;24.74;42.74
8894;BME280;4483;48.622;9.230;2023-04-21T12:26:30;97240.56;;;24.68;42.75
8894;BME280;4483;48.622;9.230;2023-04-21T12:28:57;97233.66;;;24.59;42.73
8894;BME280;4483;48.622;9.230;2023-04-21T12:31:24;97229.38;;;24.58;42.64
8894;BME280;4483;48.622;9.230;2023-04-21T12:33:52;97232.00;;;24.50;42.45
8894;BME280;4483;48.622;9.230;2023-04-21T12:36:19;97221.13;;;24.69;43.25
8894;BME280;4483;48.622;9.230;2023-04-21T12:38:46;97224.97;;;24.74;42.09
8894;BME280;4483;48.622;9.230;2023-04-21T12:41:12;97221.97;;;24.69;43.07
8894;BME280;4483;48.622;9.230;2023-04-21T12:43:39;97217.53;;;24.62;43.36
8894;BME280;4483;48.622;9.230;2023-04-21T12:46:05;97224.47;;;24.71;43.04
8894;BME280;4483;48.622;9.230;2023-04-21T12:48:33;97218.66;;;24.35;42.11
8894;BME280;4483;48.622;9.230;2023-04-21T12:51:01;97217.09;;;24.09;42.77
8894;BME280;4483;48.622;9.230;2023-04-21T12:53:27;97222.88;;;24.12;43.96
8894;BME280;4483;48.622;9.230;2023-04-21T12:55:54;97217.13;;;24.17;43.16
8894;BME280;4483;48.622;9.230;2023-04-21T12:58:20;97214.56;;;23.91;43.28
8894;BME280;4483;48.622;9.230;2023-04-21T13:00:47;97210.38;;;24.06;43.98
8894;BME280;4483;48.622;9.230;2023-04-21T13:03:14;97218.97;;;24.32;43.35
8894;BME280;4483;48.622;9.230;2023-04-21T13:05:40;97203.03;;;24.42;43.51
8894;BME280;4483;48.622;9.230;2023-04-21T13:08:09;97202.22;;;24.57;43.95
8894;BME280;4483;48.622;9.230;2023-04-21T13:10:36;97204.53;;;24.60;43.26
8894;BME280;4483;48.622;9.230;2023-04-21T13:13:03;97202.88;;;24.67;43.06
8894;BME280;4483;48.622;9.230;2023-04-21T13:15:29;97202.56;;;24.62;43.15
8894;BME280;4483;48.622;9.230;2023-04-21T13:17:56;97208.13;;;24.67;42.56
8894;BME280;4483;48.622;9.230;2023-04-21T13:20:23;97195.63;;;24.53;42.50
8894;BME280;4483;48.622;9.230;2023-04-21T13:22:50;97191.03;;;24.55;43.42
8894;BME280;4483;48.622;9.230;2023-04-21T13:25:18;97199.59;;;24.57;43.10
8894;BME280;4483;48.622;9.230;2023-04-21T13:27:45;97198.25;;;24.61;43.36